Sakizaya Brave — 3FIE7 — position and weather

sailwx.info

Track history (hours):
 
Tides and Currents Weather Stations Pressure Air Temp Water Temp Dewpoint Dewpoint Depression Visibility Wind Speed Wind Dir Waves Ship Positions

Sakizaya Brave

Last reported at 2018-Jun-11 00:00 UTC. Time now 2018-Jun-18 05:32 UTC.
Position N 54°00' E 177°24'.

Length 225 m; draft 14.2 m.

Type: Cargo ship. MMSI: 351170000.

Wind from 070 at 17 knots

Barometer 1023.0 mb
Air temperature 9.0 ° C
Water temperature 6.0 ° C

Date/timePositionNaut miles runAvg speedWind from/ knotsBaromVisibWave heightAir tempDewpointWater temp
2018-Jun-11 00:00N 54°00' E 177°24'29611.8 070 / 171023.0 9.0 6.0
2018-Jun-09 23:00N 54°12' W 174°12'29411.8 030 / 201014.0 9.0 6.0
2018-Jun-08 22:00N 54°24' W 165°48'28812.0 140 / 141009.0 9.0 6.0
2018-Jun-07 22:00N 53°42' W 157°42'27010.8 300 / 181004.0 5.4 9.0 8.0
2018-Jun-06 21:00N 52°54' W 150°18'26911.2 320 / 13996.0 9.0 8.0
2018-Jun-05 21:00N 51°36' W 143°18'   320 / 21998.0 9.0 8.0
2018-Jun-03 04:45N 48°33' W 126°24'310.6
2018-Jun-03 04:30N 48°33' W 126°20'510.8
2018-Jun-03 04:00N 48°32' W 126°12'510.6
2018-Jun-03 03:30N 48°32' W 126°04'510.9
2018-Jun-03 03:01N 48°32' W 125°56'510.7
2018-Jun-03 02:30N 48°32' W 125°48'510.6
2018-Jun-03 02:00N 48°32' W 125°40'510.8
2018-Jun-03 01:30N 48°31' W 125°32'510.6
2018-Jun-03 01:00N 48°31' W 125°24'510.7
2018-Jun-03 00:30N 48°31' W 125°16'510.8
2018-Jun-03 00:01N 48°31' W 125°08'510.4
2018-Jun-02 23:30N 48°31' W 125°00'510.5
2018-Jun-02 23:00N 48°31' W 124°52'510.4
2018-Jun-02 22:31N 48°31' W 124°44'510.9
2018-Jun-02 22:00N 48°29' W 124°37'511.1
2018-Jun-02 21:30N 48°27' W 124°29'611.7
2018-Jun-02 21:00N 48°25' W 124°21'611.7
2018-Jun-02 20:30N 48°22' W 124°13'611.9
2018-Jun-02 20:00N 48°20' W 124°04'712.6
2018-Jun-02 19:29N 48°18' W 123°55'613.3
2018-Jun-02 19:00N 48°17' W 123°45'14 9.8
2018-Jun-02 17:34N 48°21' W 123°25'1 9.2
2018-Jun-02 17:30N 48°22' W 123°25'5 9.8
2018-Jun-02 17:00N 48°23' W 123°18'612.8
2018-Jun-02 16:30N 48°28' W 123°12'815.3
2018-Jun-02 16:00N 48°36' W 123°14'713.0
2018-Jun-02 15:30N 48°42' W 123°14'713.7
2018-Jun-02 15:00N 48°45' W 123°05'510.8
2018-Jun-02 14:30N 48°50' W 123°02'612.8
2018-Jun-02 14:00N 48°55' W 123°09'612.5
2018-Jun-02 13:30N 48°59' W 123°16'612.3
2018-Jun-02 13:00N 49°03' W 123°23'611.5
2018-Jun-02 12:30N 49°09' W 123°23'612.6
2018-Jun-02 12:00N 49°15' W 123°21'510.2
2018-Jun-02 11:30N 49°19' W 123°16'5 9.3
2018-Jun-02 11:00N 49°19' W 123°09'3 6.0
2018-Jun-02 10:30N 49°18' W 123°05'1 1.0
2018-Jun-02 10:00N 49°17' W 123°04'0 0.0
2018-Jun-02 09:29N 49°17' W 123°04'0 0.0
2018-Jun-02 08:59N 49°17' W 123°04'0 0.0
2018-Jun-02 08:29N 49°17' W 123°04'0 0.0
2018-Jun-02 07:59N 49°17' W 123°04'0 0.0
2018-Jun-02 07:29N 49°17' W 123°04'0 0.0
2018-Jun-02 06:59N 49°17' W 123°04'0 0.0
2018-Jun-02 06:29N 49°17' W 123°04'0 0.0
2018-Jun-02 05:59N 49°17' W 123°04'0 0.0
2018-Jun-02 05:29N 49°17' W 123°04'0 0.0
2018-Jun-02 04:59N 49°17' W 123°04'0 0.0
2018-Jun-02 04:26N 49°17' W 123°04'0 0.0
2018-Jun-02 03:53N 49°17' W 123°04'0 0.0
2018-Jun-02 03:29N 49°17' W 123°04'0 0.0
2018-Jun-02 02:59N 49°17' W 123°04'0 0.0
2018-Jun-02 02:29N 49°17' W 123°04'0 0.0
2018-Jun-02 01:59N 49°17' W 123°04'0 0.0
2018-Jun-02 01:29N 49°17' W 123°04'0 0.0
2018-Jun-02 00:59N 49°17' W 123°04'0 0.0
2018-Jun-02 00:23N 49°17' W 123°04'0 0.0
2018-Jun-01 23:59N 49°17' W 123°04'0 0.0
2018-Jun-01 23:17N 49°17' W 123°04'0 0.0
2018-Jun-01 22:53N 49°17' W 123°04'0 0.0
2018-Jun-01 22:29N 49°17' W 123°04'0 0.0
2018-Jun-01 21:53N 49°17' W 123°04'0 0.0
2018-Jun-01 21:26N 49°17' W 123°04'0 0.0
2018-Jun-01 20:53N 49°17' W 123°04'0 0.0
2018-Jun-01 19:41N 49°17' W 123°04'0 0.0
2018-Jun-01 19:29N 49°17' W 123°04'0 0.0
2018-Jun-01 18:59N 49°17' W 123°04'0 0.0
2018-Jun-01 18:11N 49°17' W 123°04'0 0.0
2018-Jun-01 17:56N 49°17' W 123°04'0 0.0
2018-Jun-01 17:29N 49°17' W 123°04'0 0.0
2018-Jun-01 16:53N 49°17' W 123°04'0 0.0
2018-Jun-01 16:29N 49°17' W 123°04'0 0.0
2018-Jun-01 15:56N 49°17' W 123°04'0 0.0
2018-Jun-01 15:23N 49°17' W 123°04'0 0.0
2018-Jun-01 14:59N 49°17' W 123°04'0 0.0
2018-Jun-01 14:29N 49°17' W 123°04'0 0.0
2018-Jun-01 13:59N 49°17' W 123°04'0 0.0
2018-Jun-01 13:29N 49°17' W 123°04'0 0.0
2018-Jun-01 12:59N 49°17' W 123°04'0 0.0
2018-Jun-01 12:29N 49°17' W 123°04'0 0.0
2018-Jun-01 11:59N 49°17' W 123°04'0 0.0
2018-Jun-01 11:29N 49°17' W 123°04'0 0.0
2018-Jun-01 10:59N 49°17' W 123°04'0 0.0
2018-Jun-01 10:29N 49°17' W 123°04'0 0.0
2018-Jun-01 09:59N 49°17' W 123°04'0 0.0
2018-Jun-01 09:29N 49°17' W 123°04'0 0.0
2018-Jun-01 08:59N 49°17' W 123°04'0 0.0
2018-Jun-01 08:29N 49°17' W 123°04'0 0.0
2018-Jun-01 07:59N 49°17' W 123°04'0 0.0
2018-Jun-01 07:29N 49°17' W 123°04'0 0.0
2018-Jun-01 06:59N 49°17' W 123°04'0 0.0
2018-Jun-01 06:29N 49°17' W 123°04'0 0.0
2018-Jun-01 05:59N 49°17' W 123°04'0 0.0
2018-Jun-01 05:29N 49°17' W 123°04'0 0.0
2018-Jun-01 04:59N 49°17' W 123°04'0 0.0
2018-Jun-01 04:29N 49°17' W 123°04'0 0.0
2018-Jun-01 03:59N 49°17' W 123°04'0 0.0
2018-Jun-01 03:29N 49°17' W 123°04'0 0.0
2018-Jun-01 02:59N 49°17' W 123°04'0 0.0
2018-Jun-01 02:29N 49°17' W 123°04'0 0.0
2018-Jun-01 01:59N 49°17' W 123°04'0 0.0
2018-Jun-01 01:29N 49°17' W 123°04'0 0.0
2018-Jun-01 00:59N 49°17' W 123°04'0 0.0
2018-Jun-01 00:29N 49°17' W 123°04'  
Track history (hours):
 
Tides and Currents Weather Stations Pressure Air Temp Water Temp Dewpoint Dewpoint Depression Visibility Wind Speed Wind Dir Waves Ship Positions

Sakizaya Brave

Last reported at 2018-Jun-11 00:00 UTC. Time now 2018-Jun-18 05:32 UTC.
Position N 54°00' E 177°24'.

Length 225 m; draft 14.2 m.

Type: Cargo ship. MMSI: 351170000.

Wind from 070 at 17 knots

Barometer 1023.0 mb
Air temperature 9.0 ° C
Water temperature 6.0 ° C

Date/timePositionNaut miles runAvg speedWind from/ knotsBaromVisibWave heightAir tempDewpointWater temp
2018-Jun-11 00:00N 54°00' E 177°24'29611.8 070 / 171023.0 9.0 6.0
2018-Jun-09 23:00N 54°12' W 174°12'29411.8 030 / 201014.0 9.0 6.0
2018-Jun-08 22:00N 54°24' W 165°48'28812.0 140 / 141009.0 9.0 6.0
2018-Jun-07 22:00N 53°42' W 157°42'27010.8 300 / 181004.0 5.4 9.0 8.0
2018-Jun-06 21:00N 52°54' W 150°18'26911.2 320 / 13996.0 9.0 8.0
2018-Jun-05 21:00N 51°36' W 143°18'   320 / 21998.0 9.0 8.0
2018-Jun-03 04:45N 48°33' W 126°24'310.6
2018-Jun-03 04:30N 48°33' W 126°20'510.8
2018-Jun-03 04:00N 48°32' W 126°12'510.6
2018-Jun-03 03:30N 48°32' W 126°04'510.9
2018-Jun-03 03:01N 48°32' W 125°56'510.7
2018-Jun-03 02:30N 48°32' W 125°48'510.6
2018-Jun-03 02:00N 48°32' W 125°40'510.8
2018-Jun-03 01:30N 48°31' W 125°32'510.6
2018-Jun-03 01:00N 48°31' W 125°24'510.7
2018-Jun-03 00:30N 48°31' W 125°16'510.8
2018-Jun-03 00:01N 48°31' W 125°08'510.4
2018-Jun-02 23:30N 48°31' W 125°00'510.5
2018-Jun-02 23:00N 48°31' W 124°52'510.4
2018-Jun-02 22:31N 48°31' W 124°44'510.9
2018-Jun-02 22:00N 48°29' W 124°37'511.1
2018-Jun-02 21:30N 48°27' W 124°29'611.7
2018-Jun-02 21:00N 48°25' W 124°21'611.7
2018-Jun-02 20:30N 48°22' W 124°13'611.9
2018-Jun-02 20:00N 48°20' W 124°04'712.6
2018-Jun-02 19:29N 48°18' W 123°55'613.3
2018-Jun-02 19:00N 48°17' W 123°45'14 9.8
2018-Jun-02 17:34N 48°21' W 123°25'1 9.2
2018-Jun-02 17:30N 48°22' W 123°25'5 9.8
2018-Jun-02 17:00N 48°23' W 123°18'612.8
2018-Jun-02 16:30N 48°28' W 123°12'815.3
2018-Jun-02 16:00N 48°36' W 123°14'713.0
2018-Jun-02 15:30N 48°42' W 123°14'713.7
2018-Jun-02 15:00N 48°45' W 123°05'510.8
2018-Jun-02 14:30N 48°50' W 123°02'612.8
2018-Jun-02 14:00N 48°55' W 123°09'612.5
2018-Jun-02 13:30N 48°59' W 123°16'612.3
2018-Jun-02 13:00N 49°03' W 123°23'611.5
2018-Jun-02 12:30N 49°09' W 123°23'612.6
2018-Jun-02 12:00N 49°15' W 123°21'510.2
2018-Jun-02 11:30N 49°19' W 123°16'5 9.3
2018-Jun-02 11:00N 49°19' W 123°09'3 6.0
2018-Jun-02 10:30N 49°18' W 123°05'1 1.0
2018-Jun-02 10:00N 49°17' W 123°04'0 0.0
2018-Jun-02 09:29N 49°17' W 123°04'0 0.0
2018-Jun-02 08:59N 49°17' W 123°04'0 0.0
2018-Jun-02 08:29N 49°17' W 123°04'0 0.0
2018-Jun-02 07:59N 49°17' W 123°04'0 0.0
2018-Jun-02 07:29N 49°17' W 123°04'0 0.0
2018-Jun-02 06:59N 49°17' W 123°04'0 0.0
2018-Jun-02 06:29N 49°17' W 123°04'0 0.0
2018-Jun-02 05:59N 49°17' W 123°04'0 0.0
2018-Jun-02 05:29N 49°17' W 123°04'0 0.0
2018-Jun-02 04:59N 49°17' W 123°04'0 0.0
2018-Jun-02 04:26N 49°17' W 123°04'0 0.0
2018-Jun-02 03:53N 49°17' W 123°04'0 0.0
2018-Jun-02 03:29N 49°17' W 123°04'0 0.0
2018-Jun-02 02:59N 49°17' W 123°04'0 0.0
2018-Jun-02 02:29N 49°17' W 123°04'0 0.0
2018-Jun-02 01:59N 49°17' W 123°04'0 0.0
2018-Jun-02 01:29N 49°17' W 123°04'0 0.0
2018-Jun-02 00:59N 49°17' W 123°04'0 0.0
2018-Jun-02 00:23N 49°17' W 123°04'0 0.0
2018-Jun-01 23:59N 49°17' W 123°04'0 0.0
2018-Jun-01 23:17N 49°17' W 123°04'0 0.0
2018-Jun-01 22:53N 49°17' W 123°04'0 0.0
2018-Jun-01 22:29N 49°17' W 123°04'0 0.0
2018-Jun-01 21:53N 49°17' W 123°04'0 0.0
2018-Jun-01 21:26N 49°17' W 123°04'0 0.0
2018-Jun-01 20:53N 49°17' W 123°04'0 0.0
2018-Jun-01 19:41N 49°17' W 123°04'0 0.0
2018-Jun-01 19:29N 49°17' W 123°04'0 0.0
2018-Jun-01 18:59N 49°17' W 123°04'0 0.0
2018-Jun-01 18:11N 49°17' W 123°04'0 0.0
2018-Jun-01 17:56N 49°17' W 123°04'0 0.0
2018-Jun-01 17:29N 49°17' W 123°04'0 0.0
2018-Jun-01 16:53N 49°17' W 123°04'0 0.0
2018-Jun-01 16:29N 49°17' W 123°04'0 0.0
2018-Jun-01 15:56N 49°17' W 123°04'0 0.0
2018-Jun-01 15:23N 49°17' W 123°04'0 0.0
2018-Jun-01 14:59N 49°17' W 123°04'0 0.0
2018-Jun-01 14:29N 49°17' W 123°04'0 0.0
2018-Jun-01 13:59N 49°17' W 123°04'0 0.0
2018-Jun-01 13:29N 49°17' W 123°04'0 0.0
2018-Jun-01 12:59N 49°17' W 123°04'0 0.0
2018-Jun-01 12:29N 49°17' W 123°04'0 0.0
2018-Jun-01 11:59N 49°17' W 123°04'0 0.0
2018-Jun-01 11:29N 49°17' W 123°04'0 0.0
2018-Jun-01 10:59N 49°17' W 123°04'0 0.0
2018-Jun-01 10:29N 49°17' W 123°04'0 0.0
2018-Jun-01 09:59N 49°17' W 123°04'0 0.0
2018-Jun-01 09:29N 49°17' W 123°04'0 0.0
2018-Jun-01 08:59N 49°17' W 123°04'0 0.0
2018-Jun-01 08:29N 49°17' W 123°04'0 0.0
2018-Jun-01 07:59N 49°17' W 123°04'0 0.0
2018-Jun-01 07:29N 49°17' W 123°04'0 0.0
2018-Jun-01 06:59N 49°17' W 123°04'0 0.0
2018-Jun-01 06:29N 49°17' W 123°04'0 0.0
2018-Jun-01 05:59N 49°17' W 123°04'0 0.0
2018-Jun-01 05:29N 49°17' W 123°04'0 0.0
2018-Jun-01 04:59N 49°17' W 123°04'0 0.0
2018-Jun-01 04:29N 49°17' W 123°04'0 0.0
2018-Jun-01 03:59N 49°17' W 123°04'0 0.0
2018-Jun-01 03:29N 49°17' W 123°04'0 0.0
2018-Jun-01 02:59N 49°17' W 123°04'0 0.0
2018-Jun-01 02:29N 49°17' W 123°04'0 0.0
2018-Jun-01 01:59N 49°17' W 123°04'0 0.0
2018-Jun-01 01:29N 49°17' W 123°04'0 0.0
2018-Jun-01 00:59N 49°17' W 123°04'0 0.0
2018-Jun-01 00:29N 49°17' W 123°04'  

Dump ship's entire track history